Eurasian Highway — 7JKY — position and weather

sailwx.info

Track history (hours):
 
Tides and Currents Weather Stations Pressure Air Temp Water Temp Dewpoint Dewpoint Depression Visibility Wind Speed Wind Dir Waves Ship Positions

Eurasian Highway

Last reported at 2017-May-24 00:30 UTC. Time now 2017-May-24 00:29 UTC.
Position N 50°28' W 000°22'.

Length 199 m; draft 9.6 m.

Type: Cargo ship. MMSI: 432839000.

Date/timePositionNaut miles runAvg speedWind from/ knotsBaromVisibWave heightAir tempDewpointWater temp
2017-May-24 00:30N 50°28' W 000°22'918.3
2017-May-24 00:00N 50°30' W 000°08'917.9
2017-May-23 23:30N 50°32' E 000°06'917.7
2017-May-23 23:00N 50°35' E 000°19'917.5
2017-May-23 22:30N 50°38' E 000°32'816.8
2017-May-23 22:00N 50°42' E 000°44'816.2
2017-May-23 21:30N 50°46' E 000°54'915.9
2017-May-23 20:56N 50°52' E 001°05'715.9
2017-May-23 20:30N 50°57' E 001°12'816.0
2017-May-23 20:00N 51°02' E 001°23'917.3
2017-May-23 19:30N 51°07' E 001°33'918.1
2017-May-23 19:00N 51°13' E 001°45'918.6
2017-May-23 18:30N 51°21' E 001°52'918.7
2017-May-23 18:00N 51°28' E 002°01'918.5
2017-May-23 17:30N 51°35' E 002°11'918.4
2017-May-23 17:00N 51°43' E 002°19'3417.8
2017-May-23 15:05N 52°09' E 002°54'417.4
2017-May-23 14:52N 52°12' E 002°58'1415.9
2017-May-23 14:00N 52°23' E 003°12'816.6
2017-May-23 13:30N 52°30' E 003°19'816.5
2017-May-23 13:00N 52°37' E 003°27'816.4
2017-May-23 12:30N 52°43' E 003°36'816.1
2017-May-23 12:00N 52°49' E 003°44'816.3
2017-May-23 11:30N 52°56' E 003°53'816.6
2017-May-23 11:00N 53°01' E 004°03'917.2
2017-May-23 10:30N 53°06' E 004°15'917.7
2017-May-23 10:00N 53°12' E 004°26'1118.1
2017-May-23 09:25N 53°22' E 004°33'1116.6
2017-May-23 08:47N 53°29' E 004°45'517.1
2017-May-23 08:28N 53°31' E 004°54'817.1
2017-May-23 07:59N 53°34' E 005°07'816.6
2017-May-23 07:30N 53°37' E 005°19'816.1
2017-May-23 07:00N 53°39' E 005°32'815.8
2017-May-23 06:30N 53°42' E 005°45'815.6
2017-May-23 06:00N 53°44' E 005°57'815.3
2017-May-23 05:30N 53°47' E 006°10'815.2
2017-May-23 05:00N 53°49' E 006°22'3716.1
2017-May-23 02:42N 53°58' E 007°23'317.3
2017-May-23 02:30N 53°58' E 007°29'914.3
2017-May-23 01:54N 53°56' E 007°43'513.1
2017-May-23 01:30N 53°53' E 007°50'714.1
2017-May-23 01:00N 53°51' E 008°01'1017.8
2017-May-23 00:28N 53°45' E 008°13'714.5
2017-May-23 00:01N 53°40' E 008°22'713.5
2017-May-22 23:31N 53°36' E 008°31'2 4.6
2017-May-22 23:01N 53°34' E 008°33'0 0.7
2017-May-22 22:30N 53°35' E 008°33'0 0.0
2017-May-22 11:56N 53°35' E 008°33'0 0.0
2017-May-22 11:29N 53°35' E 008°33'0 0.0
2017-May-22 11:00N 53°35' E 008°33'0 0.0
2017-May-22 10:25N 53°35' E 008°33'0 0.0
2017-May-22 09:57N 53°35' E 008°33'0 0.0
2017-May-22 09:14N 53°35' E 008°33'0 0.0
2017-May-22 09:00N 53°35' E 008°33'0 0.0
2017-May-22 07:58N 53°35' E 008°33'0 0.0
2017-May-22 07:20N 53°35' E 008°33'0 0.0
2017-May-22 07:00N 53°35' E 008°33'0 0.0
2017-May-22 06:30N 53°35' E 008°33'0 0.0
2017-May-22 05:54N 53°35' E 008°33'0 0.0
2017-May-22 05:30N 53°35' E 008°33'0 0.0
2017-May-22 05:00N 53°35' E 008°33'0 0.0
2017-May-22 04:30N 53°35' E 008°33'0 0.0
2017-May-22 04:00N 53°35' E 008°33'0 0.0
2017-May-22 03:25N 53°35' E 008°33'0 0.0
2017-May-22 02:59N 53°35' E 008°33'0 0.0
2017-May-22 02:30N 53°35' E 008°33'0 0.0
2017-May-22 02:00N 53°35' E 008°33'0 0.0
2017-May-22 01:30N 53°35' E 008°33'0 0.0
2017-May-22 01:00N 53°35' E 008°33'0 0.0
2017-May-22 00:30N 53°35' E 008°33'0 0.0
2017-May-22 00:00N 53°35' E 008°33'0 0.0
2017-May-21 23:30N 53°35' E 008°33'0 0.0
2017-May-21 23:00N 53°35' E 008°33'0 0.0
2017-May-21 22:30N 53°35' E 008°33'0 0.0
2017-May-21 22:00N 53°35' E 008°33'0 0.0
2017-May-21 21:30N 53°35' E 008°33'0 0.0
2017-May-21 21:00N 53°35' E 008°33'0 0.0
2017-May-21 20:30N 53°35' E 008°33'0 0.0
2017-May-21 20:00N 53°35' E 008°33'0 0.0
2017-May-21 19:29N 53°35' E 008°33'0 0.0
2017-May-21 19:00N 53°35' E 008°33'0 0.0
2017-May-21 18:29N 53°35' E 008°33'0 0.0
2017-May-21 18:00N 53°35' E 008°33'0 0.0
2017-May-21 17:30N 53°35' E 008°33'0 0.0
2017-May-21 16:41N 53°35' E 008°33'0 0.0
2017-May-21 16:26N 53°35' E 008°33'0 0.0
2017-May-21 15:41N 53°35' E 008°33'0 0.0
2017-May-21 14:42N 53°35' E 008°33'0 0.0
2017-May-21 14:26N 53°35' E 008°33'0 0.0
2017-May-21 13:25N 53°35' E 008°33'0 0.0
2017-May-21 12:59N 53°35' E 008°33'0 0.0
2017-May-21 12:27N 53°35' E 008°33'0 0.0
2017-May-21 11:59N 53°35' E 008°33'0 0.0
2017-May-21 11:26N 53°35' E 008°33'0 0.0
2017-May-21 11:00N 53°35' E 008°33'0 0.0
2017-May-21 10:30N 53°35' E 008°33'0 0.0
2017-May-21 09:56N 53°35' E 008°33'0 0.0
2017-May-21 09:30N 53°35' E 008°33'0 0.0
2017-May-21 08:59N 53°35' E 008°33'0 0.0
2017-May-21 08:30N 53°35' E 008°33'0 0.0
2017-May-21 07:59N 53°35' E 008°33'0 0.0
2017-May-21 07:25N 53°35' E 008°33'0 0.0
2017-May-21 06:59N 53°35' E 008°33'0 0.0
2017-May-21 06:30N 53°35' E 008°33'0 0.0
2017-May-21 06:00N 53°35' E 008°33'0 0.0
2017-May-21 05:30N 53°35' E 008°33'0 0.0
2017-May-21 04:59N 53°35' E 008°33'0 0.0
2017-May-21 04:30N 53°35' E 008°33'0 0.0
2017-May-21 04:00N 53°35' E 008°33'0 0.0
2017-May-21 03:30N 53°35' E 008°33'0 0.0
2017-May-21 03:00N 53°35' E 008°33'0 0.0
2017-May-21 02:30N 53°35' E 008°33'0 0.0
2017-May-21 02:00N 53°35' E 008°33'0 0.0
2017-May-21 01:30N 53°35' E 008°33'0 0.0
2017-May-21 01:00N 53°35' E 008°33'0 0.0
2017-May-21 00:30N 53°35' E 008°33'0 0.0
2017-May-21 00:00N 53°35' E 008°33'0 0.0
2017-May-20 23:29N 53°35' E 008°33'0 0.0
2017-May-20 22:57N 53°35' E 008°33'0 0.0
2017-May-20 22:29N 53°35' E 008°33'0 0.0
2017-May-20 21:59N 53°35' E 008°33'0 0.0
2017-May-20 21:30N 53°35' E 008°33'0 0.0
2017-May-20 20:53N 53°35' E 008°33'0 0.0
2017-May-20 20:26N 53°35' E 008°33'0 0.0
2017-May-20 19:59N 53°35' E 008°33'0 0.0
2017-May-20 19:30N 53°35' E 008°33'0 0.0
2017-May-20 18:58N 53°35' E 008°33'0 0.0
2017-May-20 18:13N 53°35' E 008°33'0 0.0
2017-May-20 18:00N 53°35' E 008°33'0 0.0
2017-May-20 17:02N 53°35' E 008°33'0 0.0
2017-May-20 17:00N 53°35' E 008°33'0 0.0
2017-May-20 15:45N 53°35' E 008°33'0 0.0
2017-May-20 15:09N 53°35' E 008°33'0 0.0
2017-May-20 15:00N 53°35' E 008°33'0 0.0
2017-May-20 13:56N 53°35' E 008°33'0 0.0
2017-May-20 12:16N 53°35' E 008°33'0 0.0
2017-May-20 12:00N 53°35' E 008°33'0 0.0
2017-May-20 10:47N 53°35' E 008°33'0 1.6
2017-May-20 10:30N 53°34' E 008°33'0 0.2
2017-May-20 10:00N 53°34' E 008°33'1 1.5
2017-May-20 09:30N 53°35' E 008°32'3 6.9
2017-May-20 09:00N 53°37' E 008°28'712.8
2017-May-20 08:25N 53°42' E 008°19'614.5
2017-May-20 08:00N 53°46' E 008°11'714.4
2017-May-20 07:29N 53°51' E 008°01'612.4
2017-May-20 07:00N 53°52' E 007°52'611.0
2017-May-20 06:30N 53°53' E 007°42'9017.2
2017-May-20 01:16N 53°31' E 005°15'518.0
2017-May-20 01:00N 53°29' E 005°07'918.1
2017-May-20 00:30N 53°27' E 004°53'1416.6
2017-May-19 23:39N 53°15' E 004°38'518.1
2017-May-19 23:23N 53°11' E 004°35'718.1
2017-May-19 23:00N 53°05' E 004°29'918.3
2017-May-19 22:31N 52°57' E 004°21'918.0
2017-May-19 22:01N 52°50' E 004°13'918.5
2017-May-19 21:31N 52°43' E 004°02'918.3
2017-May-19 21:01N 52°36' E 003°52'1018.1
2017-May-19 20:29N 52°29' E 003°42'1018.1
2017-May-19 19:56N 52°22' E 003°31'4418.2
2017-May-19 17:30N 51°47' E 002°47'918.2
2017-May-19 16:59N 51°38' E 002°44'917.7
2017-May-19 16:30N 51°29' E 002°41'713.5
2017-May-19 16:00N 51°23' E 002°45'611.5
2017-May-19 15:31N 51°23' E 002°54'714.5
2017-May-19 15:01N 51°24' E 003°05'6 6.3
2017-May-19 14:00N 51°20' E 003°13'0 0.0
2017-May-19 13:30N 51°20' E 003°13'1 1.5
2017-May-19 13:00N 51°19' E 003°13'2 2.9
2017-May-19 12:29N 51°18' E 003°14'0 0.0
2017-May-19 11:58N 51°18' E 003°14'0 0.0
2017-May-19 11:28N 51°18' E 003°14'0 0.0
2017-May-19 10:58N 51°18' E 003°14'0 0.0
2017-May-19 10:28N 51°18' E 003°14'0 0.0
2017-May-19 09:58N 51°18' E 003°14'0 0.0
2017-May-19 09:29N 51°18' E 003°14'0 0.0
2017-May-19 08:59N 51°18' E 003°14'0 0.0
2017-May-19 08:29N 51°18' E 003°14'0 0.0
2017-May-19 07:59N 51°18' E 003°14'0 0.0
2017-May-19 07:29N 51°18' E 003°14'0 0.0
2017-May-19 06:59N 51°18' E 003°14'0 0.0
2017-May-19 06:29N 51°18' E 003°14'0 0.0
2017-May-19 05:59N 51°18' E 003°14'0 0.0
2017-May-19 05:29N 51°18' E 003°14'0 0.0
2017-May-19 05:00N 51°18' E 003°14'1 2.4
2017-May-19 04:30N 51°19' E 003°13'1 1.7
2017-May-19 03:50N 51°20' E 003°13'0 0.0
2017-May-19 03:30N 51°20' E 003°13'1 1.6
2017-May-19 03:00N 51°21' E 003°12'4 8.4
2017-May-19 02:31N 51°24' E 003°08'4 8.2
2017-May-19 02:01N 51°24' E 003°01'2 4.7
2017-May-19 01:30N 51°23' E 002°58'2 4.8
2017-May-19 01:01N 51°22' E 002°54'2 4.8
2017-May-19 00:31N 51°22' E 002°51'5 9.7
2017-May-18 23:59N 51°21' E 002°43'6 7.5
2017-May-18 23:14N 51°22' E 002°33'2 7.5
2017-May-18 23:00N 51°22' E 002°31'3 5.7
2017-May-18 22:31N 51°21' E 002°26'3 6.3
2017-May-18 22:01N 51°20' E 002°22'5 9.3
2017-May-18 21:30N 51°18' E 002°15'3 6.3
2017-May-18 21:01N 51°17' E 002°10'2 4.5
2017-May-18 20:30N 51°18' E 002°07'510.3
2017-May-18 20:01N 51°13' E 002°05'713.2
2017-May-18 19:31N 51°11' E 001°55'713.3
2017-May-18 19:01N 51°08' E 001°45'613.0
2017-May-18 18:31N 51°04' E 001°38'713.6
2017-May-18 18:01N 50°60' E 001°30'613.0
2017-May-18 17:30N 50°54' E 001°25'714.3
2017-May-18 17:00N 50°47' E 001°23'815.0
2017-May-18 16:27N 50°40' E 001°16'3615.1
2017-May-18 14:04N 50°22' E 000°26'814.6
2017-May-18 13:30N 50°20' E 000°14'714.8
2017-May-18 13:00N 50°19' E 000°03'816.3
2017-May-18 12:30N 50°17' W 000°10'917.9
2017-May-18 12:00N 50°15' W 000°23'1019.0
2017-May-18 11:30N 50°13' W 000°38'1019.1
2017-May-18 10:59N 50°10' W 000°53'6118.7
2017-May-18 07:45N 49°55' W 002°25'717.8
2017-May-18 07:20N 49°53' W 002°35'617.7
2017-May-18 07:00N 49°52' W 002°44'917.6
2017-May-18 06:30N 49°49' W 002°57'917.9
2017-May-18 06:00N 49°48' W 003°11'918.0
2017-May-18 05:30N 49°46' W 003°24'918.1
2017-May-18 05:00N 49°45' W 003°38'918.2
2017-May-18 04:30N 49°43' W 003°52'918.1
2017-May-18 04:00N 49°41' W 004°06'918.2
2017-May-18 03:30N 49°39' W 004°20'1118.2
2017-May-18 02:55N 49°38' W 004°36'818.1
2017-May-18 02:28N 49°36' W 004°48'918.2
2017-May-18 02:00N 49°34' W 005°01'1618.2
2017-May-18 01:06N 49°31' W 005°26'  
Track history (hours):
 
Tides and Currents Weather Stations Pressure Air Temp Water Temp Dewpoint Dewpoint Depression Visibility Wind Speed Wind Dir Waves Ship Positions

Eurasian Highway

Last reported at 2017-May-24 00:30 UTC. Time now 2017-May-24 00:29 UTC.
Position N 50°28' W 000°22'.

Length 199 m; draft 9.6 m.

Type: Cargo ship. MMSI: 432839000.

Date/timePositionNaut miles runAvg speedWind from/ knotsBaromVisibWave heightAir tempDewpointWater temp
2017-May-24 00:30N 50°28' W 000°22'918.3
2017-May-24 00:00N 50°30' W 000°08'917.9
2017-May-23 23:30N 50°32' E 000°06'917.7
2017-May-23 23:00N 50°35' E 000°19'917.5
2017-May-23 22:30N 50°38' E 000°32'816.8
2017-May-23 22:00N 50°42' E 000°44'816.2
2017-May-23 21:30N 50°46' E 000°54'915.9
2017-May-23 20:56N 50°52' E 001°05'715.9
2017-May-23 20:30N 50°57' E 001°12'816.0
2017-May-23 20:00N 51°02' E 001°23'917.3
2017-May-23 19:30N 51°07' E 001°33'918.1
2017-May-23 19:00N 51°13' E 001°45'918.6
2017-May-23 18:30N 51°21' E 001°52'918.7
2017-May-23 18:00N 51°28' E 002°01'918.5
2017-May-23 17:30N 51°35' E 002°11'918.4
2017-May-23 17:00N 51°43' E 002°19'3417.8
2017-May-23 15:05N 52°09' E 002°54'417.4
2017-May-23 14:52N 52°12' E 002°58'1415.9
2017-May-23 14:00N 52°23' E 003°12'816.6
2017-May-23 13:30N 52°30' E 003°19'816.5
2017-May-23 13:00N 52°37' E 003°27'816.4
2017-May-23 12:30N 52°43' E 003°36'816.1
2017-May-23 12:00N 52°49' E 003°44'816.3
2017-May-23 11:30N 52°56' E 003°53'816.6
2017-May-23 11:00N 53°01' E 004°03'917.2
2017-May-23 10:30N 53°06' E 004°15'917.7
2017-May-23 10:00N 53°12' E 004°26'1118.1
2017-May-23 09:25N 53°22' E 004°33'1116.6
2017-May-23 08:47N 53°29' E 004°45'517.1
2017-May-23 08:28N 53°31' E 004°54'817.1
2017-May-23 07:59N 53°34' E 005°07'816.6
2017-May-23 07:30N 53°37' E 005°19'816.1
2017-May-23 07:00N 53°39' E 005°32'815.8
2017-May-23 06:30N 53°42' E 005°45'815.6
2017-May-23 06:00N 53°44' E 005°57'815.3
2017-May-23 05:30N 53°47' E 006°10'815.2
2017-May-23 05:00N 53°49' E 006°22'3716.1
2017-May-23 02:42N 53°58' E 007°23'317.3
2017-May-23 02:30N 53°58' E 007°29'914.3
2017-May-23 01:54N 53°56' E 007°43'513.1
2017-May-23 01:30N 53°53' E 007°50'714.1
2017-May-23 01:00N 53°51' E 008°01'1017.8
2017-May-23 00:28N 53°45' E 008°13'714.5
2017-May-23 00:01N 53°40' E 008°22'713.5
2017-May-22 23:31N 53°36' E 008°31'2 4.6
2017-May-22 23:01N 53°34' E 008°33'0 0.7
2017-May-22 22:30N 53°35' E 008°33'0 0.0
2017-May-22 11:56N 53°35' E 008°33'0 0.0
2017-May-22 11:29N 53°35' E 008°33'0 0.0
2017-May-22 11:00N 53°35' E 008°33'0 0.0
2017-May-22 10:25N 53°35' E 008°33'0 0.0
2017-May-22 09:57N 53°35' E 008°33'0 0.0
2017-May-22 09:14N 53°35' E 008°33'0 0.0
2017-May-22 09:00N 53°35' E 008°33'0 0.0
2017-May-22 07:58N 53°35' E 008°33'0 0.0
2017-May-22 07:20N 53°35' E 008°33'0 0.0
2017-May-22 07:00N 53°35' E 008°33'0 0.0
2017-May-22 06:30N 53°35' E 008°33'0 0.0
2017-May-22 05:54N 53°35' E 008°33'0 0.0
2017-May-22 05:30N 53°35' E 008°33'0 0.0
2017-May-22 05:00N 53°35' E 008°33'0 0.0
2017-May-22 04:30N 53°35' E 008°33'0 0.0
2017-May-22 04:00N 53°35' E 008°33'0 0.0
2017-May-22 03:25N 53°35' E 008°33'0 0.0
2017-May-22 02:59N 53°35' E 008°33'0 0.0
2017-May-22 02:30N 53°35' E 008°33'0 0.0
2017-May-22 02:00N 53°35' E 008°33'0 0.0
2017-May-22 01:30N 53°35' E 008°33'0 0.0
2017-May-22 01:00N 53°35' E 008°33'0 0.0
2017-May-22 00:30N 53°35' E 008°33'0 0.0
2017-May-22 00:00N 53°35' E 008°33'0 0.0
2017-May-21 23:30N 53°35' E 008°33'0 0.0
2017-May-21 23:00N 53°35' E 008°33'0 0.0
2017-May-21 22:30N 53°35' E 008°33'0 0.0
2017-May-21 22:00N 53°35' E 008°33'0 0.0
2017-May-21 21:30N 53°35' E 008°33'0 0.0
2017-May-21 21:00N 53°35' E 008°33'0 0.0
2017-May-21 20:30N 53°35' E 008°33'0 0.0
2017-May-21 20:00N 53°35' E 008°33'0 0.0
2017-May-21 19:29N 53°35' E 008°33'0 0.0
2017-May-21 19:00N 53°35' E 008°33'0 0.0
2017-May-21 18:29N 53°35' E 008°33'0 0.0
2017-May-21 18:00N 53°35' E 008°33'0 0.0
2017-May-21 17:30N 53°35' E 008°33'0 0.0
2017-May-21 16:41N 53°35' E 008°33'0 0.0
2017-May-21 16:26N 53°35' E 008°33'0 0.0
2017-May-21 15:41N 53°35' E 008°33'0 0.0
2017-May-21 14:42N 53°35' E 008°33'0 0.0
2017-May-21 14:26N 53°35' E 008°33'0 0.0
2017-May-21 13:25N 53°35' E 008°33'0 0.0
2017-May-21 12:59N 53°35' E 008°33'0 0.0
2017-May-21 12:27N 53°35' E 008°33'0 0.0
2017-May-21 11:59N 53°35' E 008°33'0 0.0
2017-May-21 11:26N 53°35' E 008°33'0 0.0
2017-May-21 11:00N 53°35' E 008°33'0 0.0
2017-May-21 10:30N 53°35' E 008°33'0 0.0
2017-May-21 09:56N 53°35' E 008°33'0 0.0
2017-May-21 09:30N 53°35' E 008°33'0 0.0
2017-May-21 08:59N 53°35' E 008°33'0 0.0
2017-May-21 08:30N 53°35' E 008°33'0 0.0
2017-May-21 07:59N 53°35' E 008°33'0 0.0
2017-May-21 07:25N 53°35' E 008°33'0 0.0
2017-May-21 06:59N 53°35' E 008°33'0 0.0
2017-May-21 06:30N 53°35' E 008°33'0 0.0
2017-May-21 06:00N 53°35' E 008°33'0 0.0
2017-May-21 05:30N 53°35' E 008°33'0 0.0
2017-May-21 04:59N 53°35' E 008°33'0 0.0
2017-May-21 04:30N 53°35' E 008°33'0 0.0
2017-May-21 04:00N 53°35' E 008°33'0 0.0
2017-May-21 03:30N 53°35' E 008°33'0 0.0
2017-May-21 03:00N 53°35' E 008°33'0 0.0
2017-May-21 02:30N 53°35' E 008°33'0 0.0
2017-May-21 02:00N 53°35' E 008°33'0 0.0
2017-May-21 01:30N 53°35' E 008°33'0 0.0
2017-May-21 01:00N 53°35' E 008°33'0 0.0
2017-May-21 00:30N 53°35' E 008°33'0 0.0
2017-May-21 00:00N 53°35' E 008°33'0 0.0
2017-May-20 23:29N 53°35' E 008°33'0 0.0
2017-May-20 22:57N 53°35' E 008°33'0 0.0
2017-May-20 22:29N 53°35' E 008°33'0 0.0
2017-May-20 21:59N 53°35' E 008°33'0 0.0
2017-May-20 21:30N 53°35' E 008°33'0 0.0
2017-May-20 20:53N 53°35' E 008°33'0 0.0
2017-May-20 20:26N 53°35' E 008°33'0 0.0
2017-May-20 19:59N 53°35' E 008°33'0 0.0
2017-May-20 19:30N 53°35' E 008°33'0 0.0
2017-May-20 18:58N 53°35' E 008°33'0 0.0
2017-May-20 18:13N 53°35' E 008°33'0 0.0
2017-May-20 18:00N 53°35' E 008°33'0 0.0
2017-May-20 17:02N 53°35' E 008°33'0 0.0
2017-May-20 17:00N 53°35' E 008°33'0 0.0
2017-May-20 15:45N 53°35' E 008°33'0 0.0
2017-May-20 15:09N 53°35' E 008°33'0 0.0
2017-May-20 15:00N 53°35' E 008°33'0 0.0
2017-May-20 13:56N 53°35' E 008°33'0 0.0
2017-May-20 12:16N 53°35' E 008°33'0 0.0
2017-May-20 12:00N 53°35' E 008°33'0 0.0
2017-May-20 10:47N 53°35' E 008°33'0 1.6
2017-May-20 10:30N 53°34' E 008°33'0 0.2
2017-May-20 10:00N 53°34' E 008°33'1 1.5
2017-May-20 09:30N 53°35' E 008°32'3 6.9
2017-May-20 09:00N 53°37' E 008°28'712.8
2017-May-20 08:25N 53°42' E 008°19'614.5
2017-May-20 08:00N 53°46' E 008°11'714.4
2017-May-20 07:29N 53°51' E 008°01'612.4
2017-May-20 07:00N 53°52' E 007°52'611.0
2017-May-20 06:30N 53°53' E 007°42'9017.2
2017-May-20 01:16N 53°31' E 005°15'518.0
2017-May-20 01:00N 53°29' E 005°07'918.1
2017-May-20 00:30N 53°27' E 004°53'1416.6
2017-May-19 23:39N 53°15' E 004°38'518.1
2017-May-19 23:23N 53°11' E 004°35'718.1
2017-May-19 23:00N 53°05' E 004°29'918.3
2017-May-19 22:31N 52°57' E 004°21'918.0
2017-May-19 22:01N 52°50' E 004°13'918.5
2017-May-19 21:31N 52°43' E 004°02'918.3
2017-May-19 21:01N 52°36' E 003°52'1018.1
2017-May-19 20:29N 52°29' E 003°42'1018.1
2017-May-19 19:56N 52°22' E 003°31'4418.2
2017-May-19 17:30N 51°47' E 002°47'918.2
2017-May-19 16:59N 51°38' E 002°44'917.7
2017-May-19 16:30N 51°29' E 002°41'713.5
2017-May-19 16:00N 51°23' E 002°45'611.5
2017-May-19 15:31N 51°23' E 002°54'714.5
2017-May-19 15:01N 51°24' E 003°05'6 6.3
2017-May-19 14:00N 51°20' E 003°13'0 0.0
2017-May-19 13:30N 51°20' E 003°13'1 1.5
2017-May-19 13:00N 51°19' E 003°13'2 2.9
2017-May-19 12:29N 51°18' E 003°14'0 0.0
2017-May-19 11:58N 51°18' E 003°14'0 0.0
2017-May-19 11:28N 51°18' E 003°14'0 0.0
2017-May-19 10:58N 51°18' E 003°14'0 0.0
2017-May-19 10:28N 51°18' E 003°14'0 0.0
2017-May-19 09:58N 51°18' E 003°14'0 0.0
2017-May-19 09:29N 51°18' E 003°14'0 0.0
2017-May-19 08:59N 51°18' E 003°14'0 0.0
2017-May-19 08:29N 51°18' E 003°14'0 0.0
2017-May-19 07:59N 51°18' E 003°14'0 0.0
2017-May-19 07:29N 51°18' E 003°14'0 0.0
2017-May-19 06:59N 51°18' E 003°14'0 0.0
2017-May-19 06:29N 51°18' E 003°14'0 0.0
2017-May-19 05:59N 51°18' E 003°14'0 0.0
2017-May-19 05:29N 51°18' E 003°14'0 0.0
2017-May-19 05:00N 51°18' E 003°14'1 2.4
2017-May-19 04:30N 51°19' E 003°13'1 1.7
2017-May-19 03:50N 51°20' E 003°13'0 0.0
2017-May-19 03:30N 51°20' E 003°13'1 1.6
2017-May-19 03:00N 51°21' E 003°12'4 8.4
2017-May-19 02:31N 51°24' E 003°08'4 8.2
2017-May-19 02:01N 51°24' E 003°01'2 4.7
2017-May-19 01:30N 51°23' E 002°58'2 4.8
2017-May-19 01:01N 51°22' E 002°54'2 4.8
2017-May-19 00:31N 51°22' E 002°51'5 9.7
2017-May-18 23:59N 51°21' E 002°43'6 7.5
2017-May-18 23:14N 51°22' E 002°33'2 7.5
2017-May-18 23:00N 51°22' E 002°31'3 5.7
2017-May-18 22:31N 51°21' E 002°26'3 6.3
2017-May-18 22:01N 51°20' E 002°22'5 9.3
2017-May-18 21:30N 51°18' E 002°15'3 6.3
2017-May-18 21:01N 51°17' E 002°10'2 4.5
2017-May-18 20:30N 51°18' E 002°07'510.3
2017-May-18 20:01N 51°13' E 002°05'713.2
2017-May-18 19:31N 51°11' E 001°55'713.3
2017-May-18 19:01N 51°08' E 001°45'613.0
2017-May-18 18:31N 51°04' E 001°38'713.6
2017-May-18 18:01N 50°60' E 001°30'613.0
2017-May-18 17:30N 50°54' E 001°25'714.3
2017-May-18 17:00N 50°47' E 001°23'815.0
2017-May-18 16:27N 50°40' E 001°16'3615.1
2017-May-18 14:04N 50°22' E 000°26'814.6
2017-May-18 13:30N 50°20' E 000°14'714.8
2017-May-18 13:00N 50°19' E 000°03'816.3
2017-May-18 12:30N 50°17' W 000°10'917.9
2017-May-18 12:00N 50°15' W 000°23'1019.0
2017-May-18 11:30N 50°13' W 000°38'1019.1
2017-May-18 10:59N 50°10' W 000°53'6118.7
2017-May-18 07:45N 49°55' W 002°25'717.8
2017-May-18 07:20N 49°53' W 002°35'617.7
2017-May-18 07:00N 49°52' W 002°44'917.6
2017-May-18 06:30N 49°49' W 002°57'917.9
2017-May-18 06:00N 49°48' W 003°11'918.0
2017-May-18 05:30N 49°46' W 003°24'918.1
2017-May-18 05:00N 49°45' W 003°38'918.2
2017-May-18 04:30N 49°43' W 003°52'918.1
2017-May-18 04:00N 49°41' W 004°06'918.2
2017-May-18 03:30N 49°39' W 004°20'1118.2
2017-May-18 02:55N 49°38' W 004°36'818.1
2017-May-18 02:28N 49°36' W 004°48'918.2
2017-May-18 02:00N 49°34' W 005°01'1618.2
2017-May-18 01:06N 49°31' W 005°26'  

Dump ship's entire track history